createdAt,value
2019-02-19T00:00:39.711Z,101423.48
2019-02-19T00:03:06.967Z,101426.67
2019-02-19T00:05:34.219Z,101426.67
2019-02-19T00:08:01.472Z,101429.48
2019-02-19T00:10:28.716Z,101425.36
2019-02-19T00:12:55.958Z,101429.63
2019-02-19T00:15:23.271Z,101426.30
2019-02-19T00:17:50.543Z,101425.78
2019-02-19T00:20:17.779Z,101423.52
2019-02-19T00:22:45.039Z,101427.14
2019-02-19T00:25:12.249Z,101420.67
2019-02-19T00:27:39.487Z,101419.97
2019-02-19T00:30:06.871Z,101419.97
2019-02-19T00:32:34.156Z,101416.03
2019-02-19T00:35:01.451Z,101414.21
2019-02-19T00:37:28.779Z,101418.10
2019-02-19T00:39:56.030Z,101422.41
2019-02-19T00:42:23.290Z,101409.98
2019-02-19T00:44:50.533Z,101414.16
2019-02-19T00:47:17.805Z,101415.10
2019-02-19T00:49:45.071Z,101415.89
2019-02-19T00:52:12.288Z,101408.17
2019-02-19T00:54:39.550Z,101408.02
2019-02-19T00:57:06.822Z,101418.55
2019-02-19T00:59:34.054Z,101411.81
2019-02-19T01:02:01.326Z,101409.52
2019-02-19T01:04:28.558Z,101407.22
2019-02-19T01:06:55.846Z,101406.90
2019-02-19T01:09:25.408Z,101407.20
2019-02-19T01:11:52.632Z,101409.38
2019-02-19T01:14:19.934Z,101410.41
2019-02-19T01:16:47.148Z,101398.61
2019-02-19T01:19:14.408Z,101402.29
2019-02-19T01:21:41.685Z,101402.29
2019-02-19T01:24:08.916Z,101404.67
2019-02-19T01:26:36.189Z,101389.69
2019-02-19T01:29:03.441Z,101392.64
2019-02-19T01:31:30.679Z,101394.15
2019-02-19T01:33:57.939Z,101389.18
2019-02-19T01:36:25.243Z,101395.17
2019-02-19T01:38:52.469Z,101396.12
2019-02-19T01:41:19.729Z,101385.99
2019-02-19T01:43:47.007Z,101385.67
2019-02-19T01:46:14.257Z,101385.19
2019-02-19T01:48:41.507Z,101376.34
2019-02-19T01:51:08.765Z,101372.14
2019-02-19T01:53:36.007Z,101373.69
2019-02-19T01:56:03.228Z,101372.08
2019-02-19T01:58:30.492Z,101373.87
2019-02-19T02:00:57.719Z,101371.52
2019-02-19T02:03:24.939Z,101374.38
2019-02-19T02:05:52.294Z,101367.11
2019-02-19T02:08:19.534Z,101367.11
2019-02-19T02:10:46.816Z,101357.46
2019-02-19T02:13:14.090Z,101357.46
2019-02-19T02:15:42.875Z,101352.78
2019-02-19T02:18:10.284Z,101354.09
2019-02-19T02:20:39.242Z,101356.15
2019-02-19T02:23:06.493Z,101354.23
2019-02-19T02:25:33.732Z,101350.48
2019-02-19T02:28:00.980Z,101352.88
2019-02-19T02:30:28.246Z,101349.71
2019-02-19T02:32:55.489Z,101349.53
2019-02-19T02:35:22.993Z,101344.44
2019-02-19T02:37:50.258Z,101339.31
2019-02-19T02:40:17.477Z,101343.66
2019-02-19T02:42:44.698Z,101352.66
2019-02-19T02:45:11.996Z,101352.66
2019-02-19T02:47:39.209Z,101348.46
2019-02-19T02:50:06.655Z,101348.46
2019-02-19T02:52:33.910Z,101356.77
2019-02-19T02:55:01.150Z,101373.95
2019-02-19T02:57:28.398Z,101373.55
2019-02-19T02:59:55.619Z,101373.53
2019-02-19T03:02:22.863Z,101361.17
2019-02-19T03:04:50.146Z,101362.05
2019-02-19T03:07:36.283Z,101362.05
2019-02-19T03:10:03.948Z,101364.44
2019-02-19T03:12:31.367Z,101354.25
2019-02-19T03:14:58.929Z,101358.42
2019-02-19T03:17:26.223Z,101360.45
2019-02-19T03:19:53.441Z,101348.27
2019-02-19T03:22:20.765Z,101348.27
2019-02-19T03:24:47.995Z,101366.78
2019-02-19T03:27:15.305Z,101354.25
2019-02-19T03:29:42.519Z,101348.52
2019-02-19T03:32:09.800Z,101354.17
2019-02-19T03:34:37.289Z,101354.17
2019-02-19T03:37:04.612Z,101372.59
2019-02-19T03:39:31.869Z,101370.38
2019-02-19T03:41:59.214Z,101370.38
2019-02-19T03:44:26.450Z,101366.95
2019-02-19T03:46:53.699Z,101361.04
2019-02-19T03:49:20.945Z,101368.50
2019-02-19T03:51:48.153Z,101371.54
2019-02-19T03:54:15.417Z,101376.42
2019-02-19T03:56:42.648Z,101367.67
2019-02-19T03:59:09.951Z,101375.95
2019-02-19T04:01:37.220Z,101381.83
2019-02-19T04:04:04.439Z,101380.42
2019-02-19T04:06:32.450Z,101382.66
2019-02-19T04:08:59.833Z,101381.08
2019-02-19T04:11:27.128Z,101386.99
2019-02-19T04:13:54.338Z,101383.70
2019-02-19T04:16:21.673Z,101385.43
2019-02-19T04:18:49.425Z,101388.21
2019-02-19T04:21:16.660Z,101388.69
2019-02-19T04:23:43.966Z,101388.69
2019-02-19T04:26:11.156Z,101392.71
2019-02-19T04:28:38.406Z,101379.37
2019-02-19T04:31:05.658Z,101382.87
2019-02-19T04:33:32.871Z,101391.46
2019-02-19T04:36:00.199Z,101387.53
2019-02-19T04:38:27.449Z,101388.20
2019-02-19T04:40:54.668Z,101383.98
2019-02-19T04:43:23.952Z,101382.55
2019-02-19T04:45:51.233Z,101393.23
2019-02-19T04:48:18.442Z,101392.77
2019-02-19T04:50:45.724Z,101395.85
2019-02-19T04:53:12.947Z,101395.85
2019-02-19T04:55:40.162Z,101392.92
2019-02-19T04:58:07.410Z,101390.30
2019-02-19T05:00:34.636Z,101401.41
2019-02-19T05:03:01.846Z,101406.14
2019-02-19T05:05:29.105Z,101389.20
2019-02-19T05:07:56.312Z,101400.06
2019-02-19T05:10:23.540Z,101399.97
2019-02-19T05:12:50.797Z,101399.97
2019-02-19T05:15:18.007Z,101402.46
2019-02-19T05:17:45.226Z,101402.92
2019-02-19T05:20:12.485Z,101395.49
2019-02-19T05:22:39.703Z,101398.11
2019-02-19T05:25:06.987Z,101397.22
2019-02-19T05:27:34.233Z,101398.95
2019-02-19T05:30:01.478Z,101399.27
2019-02-19T05:32:28.680Z,101398.78
2019-02-19T05:34:55.933Z,101405.61
2019-02-19T05:37:23.277Z,101402.27
2019-02-19T05:39:50.477Z,101408.20
2019-02-19T05:42:17.718Z,101407.67
2019-02-19T05:44:44.940Z,101400.67
2019-02-19T05:47:12.202Z,101400.89
2019-02-19T05:49:39.418Z,101399.83
2019-02-19T05:52:07.078Z,101405.88
2019-02-19T05:54:34.340Z,101404.89
2019-02-19T05:57:01.558Z,101413.73
2019-02-19T05:59:29.037Z,101403.80
2019-02-19T06:01:56.285Z,101411.36
2019-02-19T06:04:23.507Z,101407.23
2019-02-19T06:06:50.716Z,101418.83
2019-02-19T06:09:18.000Z,101419.28
2019-02-19T06:11:45.216Z,101422.06
2019-02-19T06:14:12.432Z,101420.42
2019-02-19T06:16:39.679Z,101426.95
2019-02-19T06:19:06.899Z,101421.13
2019-02-19T06:21:34.109Z,101428.32
2019-02-19T06:24:01.364Z,101425.68
2019-02-19T06:26:28.603Z,101424.72
2019-02-19T06:28:57.833Z,101427.98
2019-02-19T06:31:25.033Z,101425.84
2019-02-19T06:33:52.304Z,101425.84
2019-02-19T06:36:19.551Z,101431.77
2019-02-19T06:38:46.767Z,101430.66
2019-02-19T06:41:13.986Z,101437.52
2019-02-19T06:43:41.255Z,101433.08
2019-02-19T06:46:08.497Z,101436.34
2019-02-19T06:48:35.740Z,101446.01
2019-02-19T06:51:03.025Z,101440.84
2019-02-19T06:53:33.418Z,101442.73
2019-02-19T06:56:02.030Z,101442.64
2019-02-19T06:58:29.356Z,101447.00
2019-02-19T07:00:56.555Z,101447.77
2019-02-19T07:04:01.495Z,101448.94
2019-02-19T07:06:30.603Z,101452.99
2019-02-19T07:08:57.834Z,101445.15
2019-02-19T07:11:25.089Z,101448.03
2019-02-19T07:13:52.333Z,101460.94
2019-02-19T07:16:19.555Z,101457.33
2019-02-19T07:18:47.193Z,101463.80
2019-02-19T07:21:14.755Z,101463.78
2019-02-19T07:23:41.984Z,101463.78
2019-02-19T07:26:09.237Z,101461.63
2019-02-19T07:28:36.452Z,101458.52
2019-02-19T07:31:03.699Z,101462.50
2019-02-19T07:33:31.007Z,101459.66
2019-02-19T07:35:58.474Z,101465.81
2019-02-19T07:38:25.733Z,101465.81
2019-02-19T07:40:53.028Z,101465.77
2019-02-19T07:43:20.245Z,101470.86
2019-02-19T07:45:47.469Z,101469.19
2019-02-19T07:48:14.745Z,101468.88
2019-02-19T07:50:41.957Z,101472.48
2019-02-19T07:53:09.211Z,101481.52
2019-02-19T07:55:36.457Z,101481.52
2019-02-19T07:58:03.688Z,101483.24
2019-02-19T08:00:30.942Z,101483.76
2019-02-19T08:02:58.173Z,101472.78
2019-02-19T08:05:25.438Z,101479.42
2019-02-19T08:07:52.675Z,101480.89
2019-02-19T08:10:19.968Z,101490.91
2019-02-19T08:12:47.520Z,101490.91
2019-02-19T08:15:14.727Z,101490.59
2019-02-19T08:17:41.988Z,101487.19
2019-02-19T08:20:16.032Z,101498.23
2019-02-19T08:22:38.655Z,101498.56
2019-02-19T08:25:07.023Z,101491.77
2019-02-19T08:27:35.089Z,101491.35
2019-02-19T08:30:02.423Z,101491.35
2019-02-19T08:32:29.699Z,101505.59
2019-02-19T08:34:56.969Z,101496.69
2019-02-19T08:37:24.305Z,101495.54
2019-02-19T08:39:51.574Z,101495.54
2019-02-19T08:42:18.821Z,101504.58
2019-02-19T08:44:46.034Z,101509.69
2019-02-19T08:47:13.288Z,101511.00
2019-02-19T08:49:40.556Z,101501.68
2019-02-19T08:52:07.783Z,101501.68
2019-02-19T08:54:35.027Z,101513.88
2019-02-19T08:57:02.301Z,101516.27
2019-02-19T08:59:29.540Z,101521.37
2019-02-19T09:01:56.807Z,101525.98
2019-02-19T09:04:24.090Z,101520.88
2019-02-19T09:06:51.407Z,101510.39
2019-02-19T09:09:18.658Z,101510.39
2019-02-19T09:11:45.907Z,101525.89
2019-02-19T09:14:13.156Z,101528.98
2019-02-19T09:16:40.371Z,101529.13
2019-02-19T09:19:07.607Z,101534.21
2019-02-19T09:21:34.866Z,101524.47
2019-02-19T09:24:09.190Z,101537.33
2019-02-19T09:26:31.645Z,101536.17
2019-02-19T09:28:58.923Z,101549.20
2019-02-19T09:31:26.200Z,101538.13
2019-02-19T09:33:53.413Z,101542.32
2019-02-19T09:36:20.868Z,101542.32
2019-02-19T09:38:48.125Z,101538.66
2019-02-19T09:41:15.373Z,101550.66
2019-02-19T09:43:42.670Z,101553.55
2019-02-19T09:46:09.930Z,101545.42
2019-02-19T09:48:37.171Z,101550.59
2019-02-19T09:51:04.425Z,101553.55
2019-02-19T09:53:31.707Z,101550.00
2019-02-19T09:55:58.938Z,101544.11
2019-02-19T09:58:26.187Z,101558.12
2019-02-19T10:00:53.450Z,101555.14
2019-02-19T10:03:20.806Z,101556.94
2019-02-19T10:05:48.235Z,101564.39
2019-02-19T10:08:15.569Z,101564.70
2019-02-19T10:10:42.823Z,101561.17
2019-02-19T10:13:10.058Z,101561.17
2019-02-19T10:15:37.379Z,101563.67
2019-02-19T10:18:10.363Z,101576.09
2019-02-19T10:20:33.748Z,101568.81
2019-02-19T10:23:01.014Z,101574.89
2019-02-19T10:25:28.257Z,101582.37
2019-02-19T10:27:55.508Z,101577.39
2019-02-19T10:30:22.749Z,101578.85
2019-02-19T10:32:50.012Z,101581.54
2019-02-19T10:35:17.288Z,101578.80
2019-02-19T10:37:45.156Z,101584.28
2019-02-19T10:40:14.437Z,101581.61
2019-02-19T10:42:41.704Z,101583.09
2019-02-19T10:45:11.377Z,101583.09
2019-02-19T10:47:38.620Z,101591.12
2019-02-19T10:50:06.606Z,101591.12
2019-02-19T10:52:33.858Z,101587.51
2019-02-19T10:55:01.154Z,101583.48
2019-02-19T10:57:28.419Z,101593.39
2019-02-19T10:59:55.659Z,101593.39
2019-02-19T11:02:22.955Z,101596.02
2019-02-19T11:04:50.165Z,101590.43
2019-02-19T11:07:17.413Z,101598.90
2019-02-19T11:09:44.687Z,101597.73
2019-02-19T11:12:11.900Z,101602.24
2019-02-19T11:14:39.148Z,101600.16
2019-02-19T11:17:06.354Z,101604.98
2019-02-19T11:19:33.695Z,101604.87
2019-02-19T11:22:01.044Z,101604.87
2019-02-19T11:24:28.352Z,101602.48
2019-02-19T11:26:55.570Z,101608.34
2019-02-19T11:29:25.693Z,101591.47
2019-02-19T11:31:53.025Z,101614.95
2019-02-19T11:34:21.137Z,101603.94
2019-02-19T11:36:48.510Z,101614.72
2019-02-19T11:39:15.842Z,101611.13
2019-02-19T11:41:43.258Z,101608.09
2019-02-19T11:44:11.161Z,101604.56
2019-02-19T11:46:38.607Z,101603.37
2019-02-19T11:49:05.820Z,101603.37
2019-02-19T11:51:33.087Z,101610.20
2019-02-19T11:54:00.327Z,101615.37
2019-02-19T11:56:27.634Z,101600.39
2019-02-19T11:58:54.864Z,101614.00
2019-02-19T12:01:22.305Z,101620.95
2019-02-19T12:03:49.544Z,101620.95
2019-02-19T12:06:16.789Z,101620.22
2019-02-19T12:08:44.040Z,101622.44
2019-02-19T12:11:11.402Z,101613.01
2019-02-19T12:13:38.659Z,101612.83
2019-02-19T12:16:06.283Z,101617.81
2019-02-19T12:18:33.604Z,101617.78
2019-02-19T12:21:00.857Z,101620.41
2019-02-19T12:23:28.108Z,101618.95
2019-02-19T12:25:55.354Z,101617.64
2019-02-19T12:28:22.618Z,101629.52
2019-02-19T12:30:49.848Z,101629.52
2019-02-19T12:33:17.093Z,101623.19
2019-02-19T12:35:44.365Z,101627.09
2019-02-19T12:38:11.717Z,101627.75
2019-02-19T12:40:38.981Z,101615.97
2019-02-19T12:43:06.240Z,101615.97
2019-02-19T12:45:33.481Z,101629.39
2019-02-19T12:48:00.739Z,101624.55
2019-02-19T12:50:28.320Z,101629.09
2019-02-19T12:52:55.545Z,101629.09
2019-02-19T12:55:22.881Z,101625.02
2019-02-19T12:57:50.109Z,101626.86
2019-02-19T13:00:17.452Z,101636.31
2019-02-19T13:02:44.726Z,101632.70
2019-02-19T13:05:12.258Z,101636.47
2019-02-19T13:07:39.663Z,101635.19
2019-02-19T13:10:07.700Z,101640.88
2019-02-19T13:12:34.950Z,101649.41
2019-02-19T13:15:02.299Z,101646.28
2019-02-19T13:17:29.554Z,101643.83
2019-02-19T13:19:56.774Z,101631.39
2019-02-19T13:22:24.049Z,101643.59
2019-02-19T13:24:51.285Z,101639.27
2019-02-19T13:27:18.509Z,101650.34
2019-02-19T13:29:45.816Z,101646.91
2019-02-19T13:32:13.034Z,101650.91
2019-02-19T13:34:40.287Z,101643.28
2019-02-19T13:37:07.555Z,101644.55
2019-02-19T13:39:34.881Z,101658.09
2019-02-19T13:42:02.105Z,101647.27
2019-02-19T13:44:29.426Z,101656.42
2019-02-19T13:46:56.715Z,101661.81
2019-02-19T13:49:23.951Z,101661.81
2019-02-19T13:51:53.171Z,101660.69
2019-02-19T13:54:36.689Z,101659.32
2019-02-19T13:57:04.069Z,101657.26
2019-02-19T13:59:31.312Z,101666.55
2019-02-19T14:01:58.582Z,101674.95
2019-02-19T14:04:25.846Z,101670.58
2019-02-19T14:06:53.092Z,101670.58
2019-02-19T14:09:20.351Z,101671.56
2019-02-19T14:11:47.629Z,101664.45
2019-02-19T14:14:49.644Z,101674.34
2019-02-19T14:17:19.411Z,101674.34
2019-02-19T14:19:56.645Z,101683.67
2019-02-19T14:22:41.953Z,101684.42
2019-02-19T14:25:34.496Z,101685.31
2019-02-19T14:28:20.350Z,101690.00
2019-02-19T14:31:02.662Z,101687.08
2019-02-19T14:33:49.458Z,101684.75
2019-02-19T14:36:38.859Z,101679.70
2019-02-19T14:39:24.829Z,101686.95
2019-02-19T14:42:08.833Z,101690.09
2019-02-19T14:44:55.145Z,101689.95
2019-02-19T14:47:46.113Z,101696.39
2019-02-19T14:50:24.197Z,101693.34
2019-02-19T14:53:13.881Z,101697.08
2019-02-19T14:56:09.661Z,101694.78
2019-02-19T14:58:55.171Z,101702.16
2019-02-19T15:01:40.073Z,101710.39
2019-02-19T15:04:26.884Z,101705.65
2019-02-19T15:07:13.526Z,101705.50
2019-02-19T15:10:03.204Z,101712.30
2019-02-19T15:13:01.798Z,101712.81
2019-02-19T15:15:48.711Z,101721.97
2019-02-19T15:18:34.485Z,101719.67
2019-02-19T15:21:27.186Z,101725.73
2019-02-19T15:24:12.672Z,101725.73
2019-02-19T15:26:58.111Z,101723.81
2019-02-19T15:29:44.898Z,101711.00
2019-02-19T15:32:40.773Z,101711.00
2019-02-19T15:35:26.301Z,101730.05
2019-02-19T15:38:18.993Z,101730.05
2019-02-19T15:41:11.417Z,101736.13
2019-02-19T15:44:00.821Z,101734.86
2019-02-19T15:46:53.567Z,101737.25
2019-02-19T15:49:32.331Z,101737.25
2019-02-19T15:52:20.501Z,101736.77
2019-02-19T15:55:10.226Z,101747.82
2019-02-19T15:58:04.814Z,101734.56
2019-02-19T16:00:46.295Z,101739.06
2019-02-19T16:03:33.110Z,101740.95
2019-02-19T16:06:32.234Z,101749.48
2019-02-19T16:09:10.210Z,101747.61
2019-02-19T16:11:45.627Z,101737.67
2019-02-19T16:14:47.297Z,101731.53
2019-02-19T16:17:52.051Z,101731.53
2019-02-19T16:20:41.435Z,101753.44
2019-02-19T16:23:15.683Z,101756.80
2019-02-19T16:26:05.208Z,101754.17
2019-02-19T16:28:55.332Z,101743.68
2019-02-19T16:31:51.068Z,101754.50
2019-02-19T16:34:37.898Z,101755.75
2019-02-19T16:37:13.587Z,101756.96
2019-02-19T16:39:57.172Z,101756.96
2019-02-19T16:42:43.754Z,101747.01
2019-02-19T16:45:45.731Z,101759.42
2019-02-19T16:48:35.408Z,101762.84
2019-02-19T16:51:21.537Z,101757.12
2019-02-19T16:54:03.545Z,101766.21
2019-02-19T16:56:43.168Z,101766.53
2019-02-19T16:59:19.574Z,101764.00
2019-02-19T17:02:09.502Z,101764.00
2019-02-19T17:04:56.432Z,101777.86
2019-02-19T17:07:42.661Z,101777.59
2019-02-19T17:10:32.101Z,101771.62
2019-02-19T17:13:23.993Z,101771.62
2019-02-19T17:16:06.735Z,101790.73
2019-02-19T17:19:11.509Z,101794.17
2019-02-19T17:21:45.013Z,101795.97
2019-02-19T17:24:37.492Z,101795.97
2019-02-19T17:27:24.280Z,101799.33
2019-02-19T17:30:07.799Z,101806.47
2019-02-19T17:32:51.522Z,101806.47
2019-02-19T17:35:35.918Z,101808.09
2019-02-19T17:38:14.738Z,101806.45
2019-02-19T17:41:01.020Z,101806.45
2019-02-19T17:43:42.726Z,101811.38
2019-02-19T17:46:47.809Z,101805.20
2019-02-19T17:49:37.657Z,101805.20
2019-02-19T17:52:18.101Z,101814.64
2019-02-19T17:54:58.324Z,101824.49
2019-02-19T17:57:44.067Z,101824.49
2019-02-19T18:00:29.779Z,101820.20
2019-02-19T18:03:17.233Z,101819.03
2019-02-19T18:06:02.913Z,101818.98
2019-02-19T18:08:49.753Z,101818.98
2019-02-19T18:11:35.535Z,101826.17
2019-02-19T18:14:28.482Z,101826.17
2019-02-19T18:17:08.798Z,101827.06
2019-02-19T18:19:36.177Z,101827.86
2019-02-19T18:22:03.435Z,101836.31
2019-02-19T18:24:30.683Z,101835.64
2019-02-19T18:26:57.904Z,101840.39
2019-02-19T18:29:25.227Z,101837.72
2019-02-19T18:31:52.502Z,101834.89
2019-02-19T18:34:19.719Z,101834.89
2019-02-19T18:36:46.962Z,101843.44
2019-02-19T18:39:14.211Z,101839.11
2019-02-19T18:41:41.494Z,101839.11
2019-02-19T18:44:08.758Z,101840.14
2019-02-19T18:46:36.024Z,101840.14
2019-02-19T18:49:03.265Z,101847.87
2019-02-19T18:51:30.523Z,101847.87
2019-02-19T18:53:58.317Z,101849.61
2019-02-19T18:56:25.553Z,101849.70
2019-02-19T18:58:52.825Z,101849.70
2019-02-19T19:01:20.033Z,101851.66
2019-02-19T19:03:47.278Z,101851.28
2019-02-19T19:06:14.582Z,101851.75
2019-02-19T19:08:41.808Z,101855.69
2019-02-19T19:11:09.028Z,101888.47
2019-02-19T19:13:36.324Z,101843.75
2019-02-19T19:16:03.658Z,101843.75
2019-02-19T19:18:30.915Z,101856.62
2019-02-19T19:20:58.142Z,101856.92
2019-02-19T19:23:25.429Z,101859.97
2019-02-19T19:25:53.837Z,101871.06
2019-02-19T19:28:21.082Z,101851.20
2019-02-19T19:30:48.304Z,101863.49
2019-02-19T19:33:15.576Z,101863.49
2019-02-19T19:35:42.803Z,101860.48
2019-02-19T19:38:10.058Z,101865.39
2019-02-19T19:40:37.332Z,101871.52
2019-02-19T19:43:04.572Z,101871.52
2019-02-19T19:45:31.792Z,101862.74
2019-02-19T19:47:59.013Z,101862.74
2019-02-19T19:50:26.273Z,101874.98
2019-02-19T19:52:53.490Z,101867.38
2019-02-19T19:55:27.438Z,101867.38
2019-02-19T19:57:54.689Z,101874.06
2019-02-19T20:00:21.949Z,101874.06
2019-02-19T20:02:49.167Z,101877.31
2019-02-19T20:05:16.439Z,101876.81
2019-02-19T20:07:43.683Z,101869.20
2019-02-19T20:10:10.982Z,101877.75
2019-02-19T20:12:38.296Z,101879.03
2019-02-19T20:15:06.448Z,101879.03
2019-02-19T20:17:33.653Z,101873.95
2019-02-19T20:20:00.880Z,101880.06
2019-02-19T20:22:28.157Z,101878.44
2019-02-19T20:24:55.397Z,101874.37
2019-02-19T20:27:22.737Z,101875.28
2019-02-19T20:29:49.966Z,101875.28
2019-02-19T20:32:17.191Z,101873.67
2019-02-19T20:34:44.458Z,101852.50
2019-02-19T20:37:11.686Z,101865.16
2019-02-19T20:39:38.952Z,101881.20
2019-02-19T20:42:06.222Z,101881.81
2019-02-19T20:44:33.435Z,101888.52
2019-02-19T20:47:00.692Z,101885.13
2019-02-19T20:49:27.932Z,101898.97
2019-02-19T20:51:55.151Z,101887.79
2019-02-19T20:54:22.448Z,101885.75
2019-02-19T20:56:49.725Z,101884.20
2019-02-19T20:59:16.958Z,101884.20
2019-02-19T21:01:44.200Z,101886.89
2019-02-19T21:04:11.435Z,101888.86
2019-02-19T21:06:38.662Z,101885.34
2019-02-19T21:09:06.256Z,101885.34
2019-02-19T21:11:33.475Z,101899.36
2019-02-19T21:14:02.993Z,101899.36
2019-02-19T21:16:30.305Z,101893.11
2019-02-19T21:18:57.536Z,101900.18
2019-02-19T21:21:24.740Z,101892.66
2019-02-19T21:23:52.026Z,101898.44
2019-02-19T21:26:19.299Z,101898.29
2019-02-19T21:28:46.637Z,101897.14
2019-02-19T21:31:13.853Z,101897.39
2019-02-19T21:33:41.101Z,101898.25
2019-02-19T21:36:08.378Z,101900.78
2019-02-19T21:38:35.576Z,101900.78
2019-02-19T21:41:02.836Z,101903.81
2019-02-19T21:43:30.132Z,101903.81
2019-02-19T21:45:57.510Z,101902.98
2019-02-19T21:48:24.772Z,101895.06
2019-02-19T21:50:52.056Z,101893.48
2019-02-19T21:53:19.985Z,101893.48
2019-02-19T21:55:47.215Z,101884.23
2019-02-19T21:58:14.522Z,101892.73
2019-02-19T22:00:42.161Z,101893.75
2019-02-19T22:03:09.376Z,101882.73
2019-02-19T22:05:36.637Z,101892.30
2019-02-19T22:08:03.903Z,101892.27
2019-02-19T22:10:31.121Z,101890.83
2019-02-19T22:12:58.339Z,101891.91
2019-02-19T22:15:25.594Z,101896.25
2019-02-19T22:17:52.825Z,101889.28
2019-02-19T22:20:54.843Z,101887.56
2019-02-19T22:23:22.102Z,101887.69
2019-02-19T22:25:49.327Z,101886.02
2019-02-19T22:28:16.581Z,101886.73
2019-02-19T22:30:43.829Z,101894.19
2019-02-19T22:33:11.106Z,101896.21
2019-02-19T22:35:38.379Z,101901.14
2019-02-19T22:38:05.586Z,101903.80
2019-02-19T22:40:32.833Z,101901.84
2019-02-19T22:43:00.069Z,101902.31
2019-02-19T22:45:27.281Z,101901.34
2019-02-19T22:47:54.534Z,101899.28
2019-02-19T22:50:21.752Z,101898.04
2019-02-19T22:52:48.965Z,101902.69
2019-02-19T22:55:23.635Z,101896.86
2019-02-19T22:57:50.855Z,101900.20
2019-02-19T23:00:36.574Z,101895.66
2019-02-19T23:03:04.408Z,101901.05
2019-02-19T23:05:32.026Z,101902.69
2019-02-19T23:07:59.275Z,101904.53
2019-02-19T23:10:26.492Z,101900.05
2019-02-19T23:12:54.064Z,101900.05
2019-02-19T23:15:21.291Z,101900.95
2019-02-19T23:17:48.539Z,101904.84
2019-02-19T23:20:15.807Z,101901.46
2019-02-19T23:22:43.045Z,101905.36
2019-02-19T23:25:09.958Z,101900.12
2019-02-19T23:27:37.207Z,101899.56
2019-02-19T23:30:05.218Z,101903.59
2019-02-19T23:32:32.433Z,101906.37
2019-02-19T23:35:22.185Z,101904.11
2019-02-19T23:37:49.423Z,101900.32
2019-02-19T23:40:16.646Z,101904.48
2019-02-19T23:42:43.924Z,101904.48
2019-02-19T23:45:11.307Z,101901.27
2019-02-19T23:47:38.522Z,101898.05
2019-02-19T23:50:05.779Z,101899.84
2019-02-19T23:52:32.998Z,101904.78
2019-02-19T23:55:00.297Z,101905.79
2019-02-19T23:57:27.486Z,101895.73
2019-02-19T23:59:54.718Z,101905.38
